sensor_id;sensor_type;location;lat;lon;timestamp;temperature;humidity
10010;DHT22;5044;48.652;9.250;2022-09-03T00:00:11;16.80;90.70
10010;DHT22;5044;48.652;9.250;2022-09-03T00:02:41;16.80;91.10
10010;DHT22;5044;48.652;9.250;2022-09-03T00:05:16;16.80;90.70
10010;DHT22;5044;48.652;9.250;2022-09-03T00:07:50;16.80;91.10
10010;DHT22;5044;48.652;9.250;2022-09-03T00:10:38;16.80;91.00
10010;DHT22;5044;48.652;9.250;2022-09-03T00:13:26;16.80;91.60
10010;DHT22;5044;48.652;9.250;2022-09-03T00:15:54;16.80;90.90
10010;DHT22;5044;48.652;9.250;2022-09-03T00:18:26;16.80;90.80
10010;DHT22;5044;48.652;9.250;2022-09-03T00:20:57;16.80;91.20
10010;DHT22;5044;48.652;9.250;2022-09-03T00:23:30;16.80;90.90
10010;DHT22;5044;48.652;9.250;2022-09-03T00:26:17;16.80;90.60
10010;DHT22;5044;48.652;9.250;2022-09-03T00:28:55;16.80;90.50
10010;DHT22;5044;48.652;9.250;2022-09-03T00:31:28;16.80;90.40
10010;DHT22;5044;48.652;9.250;2022-09-03T00:33:59;16.80;91.10
10010;DHT22;5044;48.652;9.250;2022-09-03T00:36:34;16.80;90.90
10010;DHT22;5044;48.652;9.250;2022-09-03T00:39:08;16.80;90.60
10010;DHT22;5044;48.652;9.250;2022-09-03T00:41:42;16.80;91.20
10010;DHT22;5044;48.652;9.250;2022-09-03T00:44:27;16.80;90.80
10010;DHT22;5044;48.652;9.250;2022-09-03T00:47:03;16.80;90.20
10010;DHT22;5044;48.652;9.250;2022-09-03T00:49:42;16.80;90.10
10010;DHT22;5044;48.652;9.250;2022-09-03T00:52:25;16.80;90.50
10010;DHT22;5044;48.652;9.250;2022-09-03T00:55:04;16.80;91.30
10010;DHT22;5044;48.652;9.250;2022-09-03T00:57:45;16.80;91.00
10010;DHT22;5044;48.652;9.250;2022-09-03T01:00:16;16.70;90.20
10010;DHT22;5044;48.652;9.250;2022-09-03T01:02:56;16.80;90.90
10010;DHT22;5044;48.652;9.250;2022-09-03T01:05:54;16.70;90.30
10010;DHT22;5044;48.652;9.250;2022-09-03T01:08:36;16.70;91.10
10010;DHT22;5044;48.652;9.250;2022-09-03T01:11:15;16.70;91.30
10010;DHT22;5044;48.652;9.250;2022-09-03T01:13:53;16.70;91.30
10010;DHT22;5044;48.652;9.250;2022-09-03T01:16:30;16.60;91.70
10010;DHT22;5044;48.652;9.250;2022-09-03T01:19:09;16.70;91.50
10010;DHT22;5044;48.652;9.250;2022-09-03T01:21:53;16.70;91.10
10010;DHT22;5044;48.652;9.250;2022-09-03T01:25:07;16.60;91.30
10010;DHT22;5044;48.652;9.250;2022-09-03T01:27:45;16.60;91.40
10010;DHT22;5044;48.652;9.250;2022-09-03T01:30:23;16.60;90.80
10010;DHT22;5044;48.652;9.250;2022-09-03T01:32:55;16.60;91.50
10010;DHT22;5044;48.652;9.250;2022-09-03T01:35:34;16.60;90.80
10010;DHT22;5044;48.652;9.250;2022-09-03T01:38:13;16.60;91.70
10010;DHT22;5044;48.652;9.250;2022-09-03T01:40:58;16.50;91.00
10010;DHT22;5044;48.652;9.250;2022-09-03T01:43:57;16.50;90.60
10010;DHT22;5044;48.652;9.250;2022-09-03T01:46:34;16.50;92.10
10010;DHT22;5044;48.652;9.250;2022-09-03T01:49:09;16.50;94.00
10010;DHT22;5044;48.652;9.250;2022-09-03T01:51:40;16.50;92.10
10010;DHT22;5044;48.652;9.250;2022-09-03T01:57:14;16.40;91.20
10010;DHT22;5044;48.652;9.250;2022-09-03T01:59:52;16.40;91.40
10010;DHT22;5044;48.652;9.250;2022-09-03T02:02:27;16.40;93.60
10010;DHT22;5044;48.652;9.250;2022-09-03T02:04:57;16.40;94.30
10010;DHT22;5044;48.652;9.250;2022-09-03T02:07:29;16.40;94.90
10010;DHT22;5044;48.652;9.250;2022-09-03T02:09:58;16.40;94.10
10010;DHT22;5044;48.652;9.250;2022-09-03T02:12:29;16.30;92.20
10010;DHT22;5044;48.652;9.250;2022-09-03T02:14:58;16.30;93.30
10010;DHT22;5044;48.652;9.250;2022-09-03T02:17:30;16.30;92.60
10010;DHT22;5044;48.652;9.250;2022-09-03T02:20:03;16.30;92.70
10010;DHT22;5044;48.652;9.250;2022-09-03T02:22:31;16.30;93.00
10010;DHT22;5044;48.652;9.250;2022-09-03T02:24:58;16.30;93.00
10010;DHT22;5044;48.652;9.250;2022-09-03T02:27:26;16.30;94.00
10010;DHT22;5044;48.652;9.250;2022-09-03T02:29:53;16.30;93.80
10010;DHT22;5044;48.652;9.250;2022-09-03T02:32:21;16.30;97.60
10010;DHT22;5044;48.652;9.250;2022-09-03T02:34:50;16.30;98.00
10010;DHT22;5044;48.652;9.250;2022-09-03T02:37:19;16.20;94.50
10010;DHT22;5044;48.652;9.250;2022-09-03T02:39:47;16.20;95.20
10010;DHT22;5044;48.652;9.250;2022-09-03T02:42:17;16.20;93.10
10010;DHT22;5044;48.652;9.250;2022-09-03T02:44:47;16.20;92.40
10010;DHT22;5044;48.652;9.250;2022-09-03T02:47:20;16.10;92.50
10010;DHT22;5044;48.652;9.250;2022-09-03T02:49:54;16.10;92.00
10010;DHT22;5044;48.652;9.250;2022-09-03T02:52:21;16.10;92.00
10010;DHT22;5044;48.652;9.250;2022-09-03T02:54:48;16.00;92.20
10010;DHT22;5044;48.652;9.250;2022-09-03T02:57:16;16.00;91.80
10010;DHT22;5044;48.652;9.250;2022-09-03T02:59:44;16.00;92.20
10010;DHT22;5044;48.652;9.250;2022-09-03T03:02:12;16.00;92.30
10010;DHT22;5044;48.652;9.250;2022-09-03T03:04:40;15.90;92.20
10010;DHT22;5044;48.652;9.250;2022-09-03T03:07:08;16.00;93.20
10010;DHT22;5044;48.652;9.250;2022-09-03T03:09:35;15.90;93.30
10010;DHT22;5044;48.652;9.250;2022-09-03T03:12:03;15.90;92.50
10010;DHT22;5044;48.652;9.250;2022-09-03T03:14:30;15.90;93.00
10010;DHT22;5044;48.652;9.250;2022-09-03T03:16:57;15.80;93.70
10010;DHT22;5044;48.652;9.250;2022-09-03T03:19:25;15.80;92.60
10010;DHT22;5044;48.652;9.250;2022-09-03T03:21:54;15.70;92.70
10010;DHT22;5044;48.652;9.250;2022-09-03T03:24:23;15.70;93.90
10010;DHT22;5044;48.652;9.250;2022-09-03T03:26:50;15.70;93.30
10010;DHT22;5044;48.652;9.250;2022-09-03T03:29:17;15.70;93.90
10010;DHT22;5044;48.652;9.250;2022-09-03T03:31:48;15.70;93.40
10010;DHT22;5044;48.652;9.250;2022-09-03T03:34:16;15.70;93.70
10010;DHT22;5044;48.652;9.250;2022-09-03T03:36:43;15.60;92.90
10010;DHT22;5044;48.652;9.250;2022-09-03T03:39:10;15.60;93.80
10010;DHT22;5044;48.652;9.250;2022-09-03T03:41:40;15.60;96.40
10010;DHT22;5044;48.652;9.250;2022-09-03T03:44:09;15.60;96.00
10010;DHT22;5044;48.652;9.250;2022-09-03T03:46:40;15.60;93.60
10010;DHT22;5044;48.652;9.250;2022-09-03T03:49:08;15.60;94.50
10010;DHT22;5044;48.652;9.250;2022-09-03T03:51:36;15.50;93.60
10010;DHT22;5044;48.652;9.250;2022-09-03T03:54:04;15.50;93.90
10010;DHT22;5044;48.652;9.250;2022-09-03T03:56:32;15.50;93.30
10010;DHT22;5044;48.652;9.250;2022-09-03T03:59:03;15.50;93.70
10010;DHT22;5044;48.652;9.250;2022-09-03T04:01:30;15.50;93.50
10010;DHT22;5044;48.652;9.250;2022-09-03T04:03:58;15.50;93.30
10010;DHT22;5044;48.652;9.250;2022-09-03T04:06:26;15.50;93.80
10010;DHT22;5044;48.652;9.250;2022-09-03T04:08:53;15.50;93.60
10010;DHT22;5044;48.652;9.250;2022-09-03T04:11:21;15.50;94.60
10010;DHT22;5044;48.652;9.250;2022-09-03T04:13:50;15.50;93.60
10010;DHT22;5044;48.652;9.250;2022-09-03T04:16:21;15.40;93.80
10010;DHT22;5044;48.652;9.250;2022-09-03T04:18:48;15.40;98.20
10010;DHT22;5044;48.652;9.250;2022-09-03T04:21:20;15.40;94.90
10010;DHT22;5044;48.652;9.250;2022-09-03T04:23:49;15.40;93.20
10010;DHT22;5044;48.652;9.250;2022-09-03T04:26:20;15.40;94.40
10010;DHT22;5044;48.652;9.250;2022-09-03T04:28:48;15.40;94.20
10010;DHT22;5044;48.652;9.250;2022-09-03T04:31:21;15.40;94.90
10010;DHT22;5044;48.652;9.250;2022-09-03T04:33:48;15.40;94.10
10010;DHT22;5044;48.652;9.250;2022-09-03T04:36:17;15.40;94.60
10010;DHT22;5044;48.652;9.250;2022-09-03T04:38:49;15.40;95.70
10010;DHT22;5044;48.652;9.250;2022-09-03T04:41:19;15.40;96.10
10010;DHT22;5044;48.652;9.250;2022-09-03T04:43:49;15.50;99.90
10010;DHT22;5044;48.652;9.250;2022-09-03T04:46:21;15.40;95.50
10010;DHT22;5044;48.652;9.250;2022-09-03T04:48:49;15.50;97.60
10010;DHT22;5044;48.652;9.250;2022-09-03T04:51:19;15.40;96.10
10010;DHT22;5044;48.652;9.250;2022-09-03T04:53:54;15.40;94.90
10010;DHT22;5044;48.652;9.250;2022-09-03T04:56:26;15.40;96.00
10010;DHT22;5044;48.652;9.250;2022-09-03T04:58:55;15.40;94.70
10010;DHT22;5044;48.652;9.250;2022-09-03T05:01:32;15.40;97.40
10010;DHT22;5044;48.652;9.250;2022-09-03T05:04:00;15.40;96.80
10010;DHT22;5044;48.652;9.250;2022-09-03T05:06:30;15.40;99.60
10010;DHT22;5044;48.652;9.250;2022-09-03T05:09:00;15.40;97.40
10010;DHT22;5044;48.652;9.250;2022-09-03T05:11:28;15.40;96.30
10010;DHT22;5044;48.652;9.250;2022-09-03T05:14:02;15.50;99.90
10010;DHT22;5044;48.652;9.250;2022-09-03T05:16:32;15.50;99.90
10010;DHT22;5044;48.652;9.250;2022-09-03T05:18:59;15.50;99.90
10010;DHT22;5044;48.652;9.250;2022-09-03T05:21:28;15.50;97.60
10010;DHT22;5044;48.652;9.250;2022-09-03T05:23:55;15.50;99.90
10010;DHT22;5044;48.652;9.250;2022-09-03T05:26:24;15.60;96.60
10010;DHT22;5044;48.652;9.250;2022-09-03T05:28:53;15.50;97.00
10010;DHT22;5044;48.652;9.250;2022-09-03T05:31:22;15.50;95.10
10010;DHT22;5044;48.652;9.250;2022-09-03T05:33:54;15.50;96.40
10010;DHT22;5044;48.652;9.250;2022-09-03T05:36:23;15.50;95.70
10010;DHT22;5044;48.652;9.250;2022-09-03T05:38:52;15.60;99.60
10010;DHT22;5044;48.652;9.250;2022-09-03T05:41:20;15.60;95.60
10010;DHT22;5044;48.652;9.250;2022-09-03T05:43:49;15.60;94.90
10010;DHT22;5044;48.652;9.250;2022-09-03T05:46:21;15.60;95.90
10010;DHT22;5044;48.652;9.250;2022-09-03T05:48:55;15.70;96.00
10010;DHT22;5044;48.652;9.250;2022-09-03T05:51:22;15.70;97.90
10010;DHT22;5044;48.652;9.250;2022-09-03T05:53:54;15.80;99.90
10010;DHT22;5044;48.652;9.250;2022-09-03T05:56:23;15.80;96.90
10010;DHT22;5044;48.652;9.250;2022-09-03T05:58:52;15.80;94.30
10010;DHT22;5044;48.652;9.250;2022-09-03T06:01:23;15.80;94.70
10010;DHT22;5044;48.652;9.250;2022-09-03T06:03:56;15.90;96.20
10010;DHT22;5044;48.652;9.250;2022-09-03T06:06:25;15.80;94.70
10010;DHT22;5044;48.652;9.250;2022-09-03T06:08:53;15.90;95.10
10010;DHT22;5044;48.652;9.250;2022-09-03T06:11:24;15.90;97.30
10010;DHT22;5044;48.652;9.250;2022-09-03T06:13:52;16.00;95.50
10010;DHT22;5044;48.652;9.250;2022-09-03T06:16:21;16.00;96.20
10010;DHT22;5044;48.652;9.250;2022-09-03T06:18:53;16.00;95.90
10010;DHT22;5044;48.652;9.250;2022-09-03T06:21:21;16.10;95.00
10010;DHT22;5044;48.652;9.250;2022-09-03T06:23:49;16.10;94.80
10010;DHT22;5044;48.652;9.250;2022-09-03T06:26:25;16.10;98.20
10010;DHT22;5044;48.652;9.250;2022-09-03T06:29:10;16.10;97.60
10010;DHT22;5044;48.652;9.250;2022-09-03T06:31:43;16.10;99.90
10010;DHT22;5044;48.652;9.250;2022-09-03T06:34:42;16.20;99.90
10010;DHT22;5044;48.652;9.250;2022-09-03T06:37:39;16.20;99.90
10010;DHT22;5044;48.652;9.250;2022-09-03T06:40:10;16.20;97.60
10010;DHT22;5044;48.652;9.250;2022-09-03T06:42:55;16.30;97.20
10010;DHT22;5044;48.652;9.250;2022-09-03T06:45:26;16.40;96.70
10010;DHT22;5044;48.652;9.250;2022-09-03T06:47:55;16.40;98.60
10010;DHT22;5044;48.652;9.250;2022-09-03T06:50:24;16.40;99.00
10010;DHT22;5044;48.652;9.250;2022-09-03T06:52:53;16.50;97.70
10010;DHT22;5044;48.652;9.250;2022-09-03T06:55:21;16.60;97.10
10010;DHT22;5044;48.652;9.250;2022-09-03T06:57:48;16.60;99.90
10010;DHT22;5044;48.652;9.250;2022-09-03T07:00:17;16.70;99.90
10010;DHT22;5044;48.652;9.250;2022-09-03T07:02:46;16.80;99.90
10010;DHT22;5044;48.652;9.250;2022-09-03T07:05:13;16.90;99.90
10010;DHT22;5044;48.652;9.250;2022-09-03T07:07:42;17.00;99.90
10010;DHT22;5044;48.652;9.250;2022-09-03T07:10:10;17.00;99.90
10010;DHT22;5044;48.652;9.250;2022-09-03T07:12:40;17.00;99.90
10010;DHT22;5044;48.652;9.250;2022-09-03T07:15:09;17.00;99.90
10010;DHT22;5044;48.652;9.250;2022-09-03T07:17:36;17.10;99.90
10010;DHT22;5044;48.652;9.250;2022-09-03T07:20:04;17.10;99.90
10010;DHT22;5044;48.652;9.250;2022-09-03T07:22:31;17.10;99.90
10010;DHT22;5044;48.652;9.250;2022-09-03T07:25:00;17.20;99.90
10010;DHT22;5044;48.652;9.250;2022-09-03T07:27:27;17.30;99.90
10010;DHT22;5044;48.652;9.250;2022-09-03T07:29:54;17.30;99.90
10010;DHT22;5044;48.652;9.250;2022-09-03T07:32:22;17.40;99.90
10010;DHT22;5044;48.652;9.250;2022-09-03T07:34:49;17.40;99.40
10010;DHT22;5044;48.652;9.250;2022-09-03T07:37:17;17.50;99.90
10010;DHT22;5044;48.652;9.250;2022-09-03T07:39:44;17.60;99.90
10010;DHT22;5044;48.652;9.250;2022-09-03T07:42:13;17.60;99.90
10010;DHT22;5044;48.652;9.250;2022-09-03T07:44:40;17.80;99.90
10010;DHT22;5044;48.652;9.250;2022-09-03T07:47:07;17.90;99.90
10010;DHT22;5044;48.652;9.250;2022-09-03T07:49:34;17.90;99.90
10010;DHT22;5044;48.652;9.250;2022-09-03T07:52:02;18.10;99.90
10010;DHT22;5044;48.652;9.250;2022-09-03T07:54:29;18.20;99.90
10010;DHT22;5044;48.652;9.250;2022-09-03T07:56:56;18.70;99.90
10010;DHT22;5044;48.652;9.250;2022-09-03T07:59:25;18.50;99.90
10010;DHT22;5044;48.652;9.250;2022-09-03T08:01:53;18.70;99.90
10010;DHT22;5044;48.652;9.250;2022-09-03T08:04:20;18.90;99.90
10010;DHT22;5044;48.652;9.250;2022-09-03T08:06:48;19.10;99.90
10010;DHT22;5044;48.652;9.250;2022-09-03T08:09:19;19.10;99.90
10010;DHT22;5044;48.652;9.250;2022-09-03T08:11:46;19.20;99.90
10010;DHT22;5044;48.652;9.250;2022-09-03T08:14:15;19.40;99.90
10010;DHT22;5044;48.652;9.250;2022-09-03T08:16:46;19.40;99.90
10010;DHT22;5044;48.652;9.250;2022-09-03T08:19:14;19.40;99.90
10010;DHT22;5044;48.652;9.250;2022-09-03T08:21:42;19.50;98.30
10010;DHT22;5044;48.652;9.250;2022-09-03T08:24:11;19.50;99.90
10010;DHT22;5044;48.652;9.250;2022-09-03T08:26:39;19.50;99.90
10010;DHT22;5044;48.652;9.250;2022-09-03T08:29:08;19.60;99.90
10010;DHT22;5044;48.652;9.250;2022-09-03T08:31:35;19.60;98.30
10010;DHT22;5044;48.652;9.250;2022-09-03T08:34:05;19.80;99.90
10010;DHT22;5044;48.652;9.250;2022-09-03T08:36:34;20.10;99.90
10010;DHT22;5044;48.652;9.250;2022-09-03T08:39:04;20.60;99.10
10010;DHT22;5044;48.652;9.250;2022-09-03T08:41:52;21.20;98.00
10010;DHT22;5044;48.652;9.250;2022-09-03T08:44:26;21.60;99.00
10010;DHT22;5044;48.652;9.250;2022-09-03T08:46:57;21.60;96.80
10010;DHT22;5044;48.652;9.250;2022-09-03T08:49:31;21.80;95.30
10010;DHT22;5044;48.652;9.250;2022-09-03T08:52:02;22.10;92.80
10010;DHT22;5044;48.652;9.250;2022-09-03T08:54:31;22.30;94.30
10010;DHT22;5044;48.652;9.250;2022-09-03T08:57:00;22.70;95.20
10010;DHT22;5044;48.652;9.250;2022-09-03T08:59:29;23.30;93.80
10010;DHT22;5044;48.652;9.250;2022-09-03T09:02:01;23.40;92.70
10010;DHT22;5044;48.652;9.250;2022-09-03T09:04:38;22.90;90.90
10010;DHT22;5044;48.652;9.250;2022-09-03T09:07:12;22.80;93.50
10010;DHT22;5044;48.652;9.250;2022-09-03T09:09:45;22.60;93.30
10010;DHT22;5044;48.652;9.250;2022-09-03T09:12:25;22.70;94.60
10010;DHT22;5044;48.652;9.250;2022-09-03T09:15:05;22.50;93.50
10010;DHT22;5044;48.652;9.250;2022-09-03T09:18:01;22.40;93.10
10010;DHT22;5044;48.652;9.250;2022-09-03T09:20:36;22.20;94.30
10010;DHT22;5044;48.652;9.250;2022-09-03T09:23:07;22.40;93.30
10010;DHT22;5044;48.652;9.250;2022-09-03T09:25:43;22.70;93.90
10010;DHT22;5044;48.652;9.250;2022-09-03T09:28:16;23.30;94.40
10010;DHT22;5044;48.652;9.250;2022-09-03T09:30:45;23.70;90.50
10010;DHT22;5044;48.652;9.250;2022-09-03T09:33:13;23.40;91.10
10010;DHT22;5044;48.652;9.250;2022-09-03T09:35:41;23.30;92.10
10010;DHT22;5044;48.652;9.250;2022-09-03T09:38:09;23.20;91.50
10010;DHT22;5044;48.652;9.250;2022-09-03T09:40:38;23.00;91.20
10010;DHT22;5044;48.652;9.250;2022-09-03T09:43:10;22.90;92.20
10010;DHT22;5044;48.652;9.250;2022-09-03T09:45:38;23.10;93.10
10010;DHT22;5044;48.652;9.250;2022-09-03T09:48:16;23.30;91.90
10010;DHT22;5044;48.652;9.250;2022-09-03T09:50:46;23.60;90.80
10010;DHT22;5044;48.652;9.250;2022-09-03T09:53:16;24.20;89.80
10010;DHT22;5044;48.652;9.250;2022-09-03T09:55:51;24.70;89.50
10010;DHT22;5044;48.652;9.250;2022-09-03T09:58:22;24.80;81.30
10010;DHT22;5044;48.652;9.250;2022-09-03T10:00:58;24.80;84.00
10010;DHT22;5044;48.652;9.250;2022-09-03T10:03:26;25.00;84.10
10010;DHT22;5044;48.652;9.250;2022-09-03T10:06:02;25.20;83.60
10010;DHT22;5044;48.652;9.250;2022-09-03T10:08:51;25.10;81.80
10010;DHT22;5044;48.652;9.250;2022-09-03T10:11:20;25.20;79.40
10010;DHT22;5044;48.652;9.250;2022-09-03T10:13:51;24.90;77.80
10010;DHT22;5044;48.652;9.250;2022-09-03T10:16:24;24.90;80.60
10010;DHT22;5044;48.652;9.250;2022-09-03T10:18:59;25.10;81.90
10010;DHT22;5044;48.652;9.250;2022-09-03T10:21:34;25.40;77.20
10010;DHT22;5044;48.652;9.250;2022-09-03T10:26:54;25.40;77.90
10010;DHT22;5044;48.652;9.250;2022-09-03T10:29:23;25.10;80.50
10010;DHT22;5044;48.652;9.250;2022-09-03T10:31:56;25.30;78.10
10010;DHT22;5044;48.652;9.250;2022-09-03T10:34:33;25.40;80.50
10010;DHT22;5044;48.652;9.250;2022-09-03T10:37:13;25.50;78.10
10010;DHT22;5044;48.652;9.250;2022-09-03T10:39:55;25.30;78.90
10010;DHT22;5044;48.652;9.250;2022-09-03T10:42:36;25.50;80.00
10010;DHT22;5044;48.652;9.250;2022-09-03T10:45:17;25.50;79.30
10010;DHT22;5044;48.652;9.250;2022-09-03T10:48:28;25.60;81.70
10010;DHT22;5044;48.652;9.250;2022-09-03T10:51:02;25.60;79.70
10010;DHT22;5044;48.652;9.250;2022-09-03T10:53:42;25.50;78.40
10010;DHT22;5044;48.652;9.250;2022-09-03T10:56:16;25.70;77.30
10010;DHT22;5044;48.652;9.250;2022-09-03T10:59:06;25.80;77.80
10010;DHT22;5044;48.652;9.250;2022-09-03T11:01:41;25.80;75.60
10010;DHT22;5044;48.652;9.250;2022-09-03T11:04:19;25.90;75.30
10010;DHT22;5044;48.652;9.250;2022-09-03T11:06:52;25.70;76.70
10010;DHT22;5044;48.652;9.250;2022-09-03T11:09:25;25.50;76.30
10010;DHT22;5044;48.652;9.250;2022-09-03T11:11:58;25.30;80.80
10010;DHT22;5044;48.652;9.250;2022-09-03T11:14:33;25.30;83.10
10010;DHT22;5044;48.652;9.250;2022-09-03T11:17:06;25.40;79.70
10010;DHT22;5044;48.652;9.250;2022-09-03T11:19:40;25.40;78.70
10010;DHT22;5044;48.652;9.250;2022-09-03T11:22:13;25.40;79.20
10010;DHT22;5044;48.652;9.250;2022-09-03T11:24:45;25.40;78.50
10010;DHT22;5044;48.652;9.250;2022-09-03T11:27:25;25.40;78.50
10010;DHT22;5044;48.652;9.250;2022-09-03T11:29:59;25.10;78.40
10010;DHT22;5044;48.652;9.250;2022-09-03T11:32:33;24.90;78.40
10010;DHT22;5044;48.652;9.250;2022-09-03T11:35:13;24.60;81.60
10010;DHT22;5044;48.652;9.250;2022-09-03T11:37:49;24.60;83.20
10010;DHT22;5044;48.652;9.250;2022-09-03T11:40:28;24.40;84.60
10010;DHT22;5044;48.652;9.250;2022-09-03T11:43:05;24.40;84.80
10010;DHT22;5044;48.652;9.250;2022-09-03T11:45:35;24.50;84.40
10010;DHT22;5044;48.652;9.250;2022-09-03T11:48:16;24.20;84.00
10010;DHT22;5044;48.652;9.250;2022-09-03T11:50:52;24.30;85.60
10010;DHT22;5044;48.652;9.250;2022-09-03T11:53:24;24.20;82.70
10010;DHT22;5044;48.652;9.250;2022-09-03T11:55:59;24.10;84.10
10010;DHT22;5044;48.652;9.250;2022-09-03T11:58:29;24.00;83.60
10010;DHT22;5044;48.652;9.250;2022-09-03T12:01:01;23.90;84.20
10010;DHT22;5044;48.652;9.250;2022-09-03T12:03:38;23.60;88.70
10010;DHT22;5044;48.652;9.250;2022-09-03T12:06:29;23.50;89.20
10010;DHT22;5044;48.652;9.250;2022-09-03T12:09:44;23.50;87.60
10010;DHT22;5044;48.652;9.250;2022-09-03T12:12:31;23.10;91.30
10010;DHT22;5044;48.652;9.250;2022-09-03T12:15:08;21.70;97.10
10010;DHT22;5044;48.652;9.250;2022-09-03T12:17:51;21.10;99.90
10010;DHT22;5044;48.652;9.250;2022-09-03T12:21:06;21.50;97.80
10010;DHT22;5044;48.652;9.250;2022-09-03T12:23:42;21.30;98.50
10010;DHT22;5044;48.652;9.250;2022-09-03T12:29:29;20.80;99.90
10010;DHT22;5044;48.652;9.250;2022-09-03T12:32:10;20.50;99.20
10010;DHT22;5044;48.652;9.250;2022-09-03T13:11:50;20.00;99.90
10010;DHT22;5044;48.652;9.250;2022-09-03T13:25:54;19.90;99.90
10010;DHT22;5044;48.652;9.250;2022-09-03T13:32:17;19.90;99.90
10010;DHT22;5044;48.652;9.250;2022-09-03T13:35:04;19.70;99.90
10010;DHT22;5044;48.652;9.250;2022-09-03T13:37:51;19.90;99.90
10010;DHT22;5044;48.652;9.250;2022-09-03T13:41:02;19.80;99.90
10010;DHT22;5044;48.652;9.250;2022-09-03T13:43:40;19.90;99.90
10010;DHT22;5044;48.652;9.250;2022-09-03T13:46:24;19.90;99.90
